createdAt,value
2022-09-14T03:41:21.080Z,2.92
2022-09-14T03:44:24.120Z,2.87
2022-09-14T03:47:27.224Z,2.85
2022-09-14T03:50:30.429Z,2.35
2022-09-14T03:53:33.505Z,2.37
2022-09-14T03:56:36.250Z,2.40
2022-09-14T03:59:43.044Z,2.30
2022-09-14T04:02:46.716Z,2.30
2022-09-14T04:05:56.414Z,2.55
2022-09-14T04:08:59.324Z,2.10
2022-09-14T04:15:08.701Z,3.03
2022-09-14T04:18:12.093Z,2.30
2022-09-14T04:24:18.769Z,2.60
2022-09-14T04:30:24.231Z,2.92
2022-09-14T04:33:30.725Z,2.67
2022-09-14T04:36:33.603Z,2.50
2022-09-14T04:39:36.230Z,2.92
2022-09-14T04:42:38.971Z,2.83
2022-09-14T04:45:41.427Z,3.10
2022-09-14T04:48:44.543Z,2.65
2022-09-14T04:51:47.164Z,2.53
2022-09-14T04:54:49.925Z,3.05
2022-09-14T04:57:52.483Z,2.60
2022-09-14T05:01:09.635Z,2.37
2022-09-14T05:04:12.449Z,2.40
2022-09-14T05:10:17.588Z,2.45
2022-09-14T05:13:20.390Z,2.47
2022-09-14T05:16:29.518Z,2.45
2022-09-14T05:19:32.539Z,2.40
2022-09-14T05:22:35.341Z,2.67
2022-09-14T05:25:38.210Z,2.45
2022-09-14T05:28:40.996Z,2.60
2022-09-14T05:34:46.527Z,2.20
2022-09-14T05:37:49.382Z,2.25
2022-09-14T05:40:54.601Z,2.35
2022-09-14T05:43:59.563Z,1.85
2022-09-14T05:47:02.975Z,2.20
2022-09-14T05:50:08.445Z,2.50
2022-09-14T05:53:11.152Z,2.45
2022-09-14T05:56:14.507Z,2.42
2022-09-14T06:02:19.584Z,4.10
2022-09-14T06:08:28.212Z,1.95
2022-09-14T06:11:33.848Z,2.22
2022-09-14T06:14:36.723Z,2.85
2022-09-14T06:17:39.857Z,2.70
2022-09-14T06:20:53.026Z,2.40
2022-09-14T06:23:56.172Z,2.60
2022-09-14T06:26:58.711Z,3.00
2022-09-14T06:30:01.474Z,2.20
2022-09-14T06:33:05.088Z,2.40
2022-09-14T06:36:12.272Z,2.50
2022-09-14T06:39:14.886Z,2.67
2022-09-14T06:45:23.197Z,2.40
2022-09-14T06:48:27.812Z,2.75
2022-09-14T06:51:37.226Z,2.78
2022-09-14T06:54:40.029Z,3.10
2022-09-14T06:57:43.222Z,3.28
2022-09-14T07:00:46.671Z,2.20
2022-09-14T07:03:51.498Z,3.72
2022-09-14T07:06:54.315Z,2.97
2022-09-14T07:09:56.871Z,3.17
2022-09-14T07:16:03.874Z,3.72
2022-09-14T07:19:10.275Z,3.50
2022-09-14T07:22:12.994Z,3.80
2022-09-14T07:25:15.905Z,3.75
2022-09-14T07:28:18.619Z,3.45
2022-09-14T07:31:27.780Z,3.75
2022-09-14T07:34:30.346Z,4.93
2022-09-14T07:37:33.303Z,4.40
2022-09-14T07:40:36.035Z,4.10
2022-09-14T07:43:38.992Z,4.00
2022-09-14T07:46:43.255Z,3.75
2022-09-14T07:49:46.212Z,4.07
2022-09-14T07:52:52.077Z,4.53
2022-09-14T07:55:54.888Z,4.12
2022-09-14T07:59:11.880Z,3.90
2022-09-14T08:02:23.361Z,4.35
2022-09-14T08:05:26.457Z,4.12
2022-09-14T08:11:39.040Z,4.72
2022-09-14T08:14:41.516Z,4.68
2022-09-14T08:17:43.909Z,4.90
2022-09-14T08:20:46.832Z,4.55
2022-09-14T08:23:49.758Z,4.60
2022-09-14T08:26:52.113Z,4.93
2022-09-14T08:29:54.669Z,4.82
2022-09-14T08:33:01.267Z,4.35
2022-09-14T08:36:06.451Z,5.32
2022-09-14T08:39:12.351Z,4.70
2022-09-14T08:42:18.724Z,4.47
2022-09-14T08:45:22.541Z,4.07
2022-09-14T08:48:35.155Z,3.85
2022-09-14T08:51:37.674Z,4.70
2022-09-14T08:54:40.994Z,4.03
2022-09-14T08:58:09.933Z,4.15
2022-09-14T09:01:20.722Z,4.12
2022-09-14T09:04:39.355Z,4.28
2022-09-14T09:08:01.825Z,4.40
2022-09-14T09:11:07.317Z,4.40
2022-09-14T09:14:24.119Z,4.30
2022-09-14T09:17:29.942Z,4.22
2022-09-14T09:20:46.395Z,4.53
2022-09-14T09:23:49.040Z,4.57
2022-09-14T09:29:53.986Z,4.43
2022-09-14T09:32:57.617Z,4.60
2022-09-14T09:36:01.976Z,5.22
2022-09-14T09:39:05.943Z,4.93
2022-09-14T09:42:17.604Z,4.87
2022-09-14T09:45:20.697Z,5.07
2022-09-14T09:48:28.402Z,5.72
2022-09-14T09:51:33.430Z,5.60
2022-09-14T09:54:38.194Z,5.32
2022-09-14T09:57:41.074Z,5.15
2022-09-14T10:00:57.114Z,5.22
2022-09-14T10:04:04.697Z,4.62
2022-09-14T10:07:21.565Z,4.75
2022-09-14T10:10:39.147Z,4.78
2022-09-14T10:13:47.111Z,5.10
2022-09-14T10:16:50.299Z,4.55
2022-09-14T10:19:55.249Z,4.55
2022-09-14T10:23:21.608Z,4.90
2022-09-14T10:26:27.110Z,4.40
2022-09-14T10:29:54.677Z,4.70
2022-09-14T10:33:03.751Z,4.75
2022-09-14T10:36:29.714Z,4.47
2022-09-14T10:39:46.298Z,3.90
2022-09-14T10:43:17.178Z,4.00
2022-09-14T10:46:25.619Z,4.68
2022-09-14T10:49:48.129Z,4.07
2022-09-14T10:53:03.464Z,3.85
2022-09-14T10:56:14.122Z,4.10
2022-09-14T10:59:35.309Z,3.97
2022-09-14T11:02:56.034Z,3.40
2022-09-14T11:06:27.905Z,3.60
2022-09-14T11:09:43.332Z,3.50
2022-09-14T11:13:04.157Z,3.05
2022-09-14T11:16:23.321Z,3.12
2022-09-14T11:19:29.854Z,3.40
2022-09-14T11:22:47.423Z,3.47
2022-09-14T11:26:12.430Z,3.70
2022-09-14T11:29:27.485Z,3.78
2022-09-14T11:32:42.571Z,3.90
2022-09-14T11:35:58.345Z,3.20
2022-09-14T11:39:11.568Z,3.37
2022-09-14T11:42:22.882Z,3.53
2022-09-14T11:45:41.146Z,2.90
2022-09-14T11:48:51.798Z,3.33
2022-09-14T11:52:00.955Z,3.67
2022-09-14T11:55:10.846Z,3.58
2022-09-14T11:58:20.908Z,3.35
2022-09-14T12:01:40.636Z,3.33
2022-09-14T12:05:04.691Z,3.30
2022-09-14T12:08:38.700Z,3.35
2022-09-14T12:11:43.125Z,3.55
2022-09-14T12:14:46.902Z,3.28
2022-09-14T12:17:51.503Z,3.37
2022-09-14T12:21:02.874Z,3.37
2022-09-14T12:24:15.399Z,3.70
2022-09-14T12:27:24.092Z,3.78
2022-09-14T12:30:40.927Z,3.22
2022-09-14T12:33:46.075Z,2.80
2022-09-14T12:36:48.834Z,2.62
2022-09-14T12:43:34.935Z,2.97
2022-09-14T12:46:38.713Z,2.90
2022-09-14T12:49:41.655Z,3.00
2022-09-14T12:52:44.104Z,2.58
2022-09-14T12:55:56.738Z,2.50
2022-09-14T12:59:24.135Z,2.17
2022-09-14T13:02:47.467Z,2.58
2022-09-14T13:05:51.057Z,2.47
2022-09-14T13:08:56.814Z,2.35
2022-09-14T13:12:06.195Z,1.85
2022-09-14T13:15:28.017Z,2.20
2022-09-14T13:18:36.922Z,2.20
2022-09-14T13:21:50.573Z,2.55
2022-09-14T13:24:53.540Z,2.35
2022-09-14T13:27:57.896Z,2.25
2022-09-14T13:31:01.747Z,2.28
2022-09-14T13:34:05.673Z,2.10
2022-09-14T13:37:13.296Z,2.25
2022-09-14T13:40:17.108Z,2.25
2022-09-14T13:43:21.889Z,1.80
2022-09-14T13:46:27.012Z,2.20
2022-09-14T13:49:30.184Z,1.98
2022-09-14T13:53:00.501Z,1.85
2022-09-14T13:56:00.545Z,1.80
2022-09-14T13:59:12.493Z,2.03
2022-09-14T14:02:15.076Z,1.98
2022-09-14T14:05:28.483Z,2.12
2022-09-14T14:08:36.361Z,2.22
2022-09-14T14:11:52.791Z,1.73
2022-09-14T14:15:05.352Z,2.40
2022-09-14T14:18:31.697Z,2.03
2022-09-14T14:21:34.234Z,2.10
2022-09-14T14:24:55.778Z,2.03
2022-09-14T14:28:02.419Z,2.05
2022-09-14T14:31:08.796Z,1.83
2022-09-14T14:34:27.421Z,2.20
2022-09-14T14:37:30.238Z,2.00
2022-09-14T14:40:34.880Z,1.80
2022-09-14T14:43:41.297Z,2.15
2022-09-14T14:46:45.637Z,2.15
2022-09-14T14:49:48.439Z,1.92
2022-09-14T14:52:51.754Z,2.62
2022-09-14T14:55:54.624Z,2.42
2022-09-14T14:59:01.931Z,2.20
2022-09-14T15:02:06.784Z,2.15
2022-09-14T15:05:10.404Z,2.42
2022-09-14T15:08:15.534Z,2.50
2022-09-14T15:11:18.492Z,1.85
2022-09-14T15:14:26.667Z,1.90
2022-09-14T15:17:30.880Z,2.60
2022-09-14T15:20:34.145Z,2.22
2022-09-14T15:23:37.240Z,2.08
2022-09-14T15:26:40.072Z,1.98
2022-09-14T15:29:42.575Z,2.50
2022-09-14T15:32:45.464Z,2.00
2022-09-14T15:35:54.862Z,1.77
2022-09-14T15:38:57.838Z,2.05
2022-09-14T15:42:00.416Z,2.25
2022-09-14T15:45:04.062Z,1.85
2022-09-14T15:48:06.796Z,1.80
2022-09-14T15:51:11.749Z,1.95
2022-09-14T15:54:14.940Z,1.67
2022-09-14T15:57:17.699Z,1.67
2022-09-14T16:00:20.403Z,1.98
2022-09-14T16:03:23.160Z,1.87
2022-09-14T16:09:28.825Z,1.80
2022-09-14T16:12:31.432Z,1.92
2022-09-14T16:15:34.304Z,1.98
